sensor_id;sensor_type;location;lat;lon;timestamp;temperature;humidity
11772;DHT22;12556;55.748;13.194;2023-04-25T00:00:31;8.30;99.90
11772;DHT22;12556;55.748;13.194;2023-04-25T00:02:58;8.30;99.90
11772;DHT22;12556;55.748;13.194;2023-04-25T00:05:26;8.30;99.90
11772;DHT22;12556;55.748;13.194;2023-04-25T00:07:53;8.30;99.90
11772;DHT22;12556;55.748;13.194;2023-04-25T00:10:20;8.30;99.90
11772;DHT22;12556;55.748;13.194;2023-04-25T00:12:46;8.30;99.90
11772;DHT22;12556;55.748;13.194;2023-04-25T00:15:14;8.30;99.90
11772;DHT22;12556;55.748;13.194;2023-04-25T00:17:42;8.30;99.90
11772;DHT22;12556;55.748;13.194;2023-04-25T00:20:12;8.30;99.90
11772;DHT22;12556;55.748;13.194;2023-04-25T00:22:38;8.20;99.90
11772;DHT22;12556;55.748;13.194;2023-04-25T00:25:06;8.20;99.90
11772;DHT22;12556;55.748;13.194;2023-04-25T00:27:33;8.20;99.90
11772;DHT22;12556;55.748;13.194;2023-04-25T00:30:00;8.20;99.90
11772;DHT22;12556;55.748;13.194;2023-04-25T00:32:28;8.20;99.90
11772;DHT22;12556;55.748;13.194;2023-04-25T00:34:56;8.20;99.90
11772;DHT22;12556;55.748;13.194;2023-04-25T00:37:23;8.10;99.90
11772;DHT22;12556;55.748;13.194;2023-04-25T00:39:50;8.10;99.90
11772;DHT22;12556;55.748;13.194;2023-04-25T00:42:19;8.10;99.90
11772;DHT22;12556;55.748;13.194;2023-04-25T00:44:46;8.70;99.90
11772;DHT22;12556;55.748;13.194;2023-04-25T00:47:15;8.10;99.90
11772;DHT22;12556;55.748;13.194;2023-04-25T00:49:42;8.00;99.90
11772;DHT22;12556;55.748;13.194;2023-04-25T00:52:10;8.00;99.90
11772;DHT22;12556;55.748;13.194;2023-04-25T00:54:37;8.00;99.90
11772;DHT22;12556;55.748;13.194;2023-04-25T00:57:05;8.00;99.90
11772;DHT22;12556;55.748;13.194;2023-04-25T00:59:32;8.00;99.90
11772;DHT22;12556;55.748;13.194;2023-04-25T01:01:59;8.00;99.90
11772;DHT22;12556;55.748;13.194;2023-04-25T01:04:27;8.00;99.90
11772;DHT22;12556;55.748;13.194;2023-04-25T01:06:54;7.90;99.90
11772;DHT22;12556;55.748;13.194;2023-04-25T01:09:23;7.90;99.90
11772;DHT22;12556;55.748;13.194;2023-04-25T01:11:50;7.90;99.90
11772;DHT22;12556;55.748;13.194;2023-04-25T01:14:17;7.90;99.90
11772;DHT22;12556;55.748;13.194;2023-04-25T01:16:44;8.00;99.90
11772;DHT22;12556;55.748;13.194;2023-04-25T01:19:11;8.00;99.90
11772;DHT22;12556;55.748;13.194;2023-04-25T01:21:42;8.00;99.90
11772;DHT22;12556;55.748;13.194;2023-04-25T01:24:09;8.00;99.90
11772;DHT22;12556;55.748;13.194;2023-04-25T01:26:36;8.00;99.90
11772;DHT22;12556;55.748;13.194;2023-04-25T01:29:04;8.00;99.90
11772;DHT22;12556;55.748;13.194;2023-04-25T01:31:32;8.00;99.90
11772;DHT22;12556;55.748;13.194;2023-04-25T01:33:59;8.00;99.90
11772;DHT22;12556;55.748;13.194;2023-04-25T01:36:26;8.00;99.90
11772;DHT22;12556;55.748;13.194;2023-04-25T01:38:55;8.00;99.90
11772;DHT22;12556;55.748;13.194;2023-04-25T01:41:23;8.00;99.90
11772;DHT22;12556;55.748;13.194;2023-04-25T01:43:50;8.00;99.90
11772;DHT22;12556;55.748;13.194;2023-04-25T01:46:17;8.00;99.90
11772;DHT22;12556;55.748;13.194;2023-04-25T01:48:44;8.00;99.90
11772;DHT22;12556;55.748;13.194;2023-04-25T01:51:11;8.30;99.90
11772;DHT22;12556;55.748;13.194;2023-04-25T01:53:38;7.90;99.90
11772;DHT22;12556;55.748;13.194;2023-04-25T01:56:07;7.90;99.90
11772;DHT22;12556;55.748;13.194;2023-04-25T01:58:34;7.80;99.90
11772;DHT22;12556;55.748;13.194;2023-04-25T02:01:01;7.80;99.90
11772;DHT22;12556;55.748;13.194;2023-04-25T02:03:28;7.80;99.90
11772;DHT22;12556;55.748;13.194;2023-04-25T02:05:55;7.80;99.90
11772;DHT22;12556;55.748;13.194;2023-04-25T02:08:22;7.70;99.90
11772;DHT22;12556;55.748;13.194;2023-04-25T02:10:51;7.70;99.90
11772;DHT22;12556;55.748;13.194;2023-04-25T02:13:19;7.70;99.90
11772;DHT22;12556;55.748;13.194;2023-04-25T02:15:46;7.70;99.90
11772;DHT22;12556;55.748;13.194;2023-04-25T02:18:13;7.70;99.90
11772;DHT22;12556;55.748;13.194;2023-04-25T02:20:41;7.60;99.90
11772;DHT22;12556;55.748;13.194;2023-04-25T02:23:08;7.60;99.90
11772;DHT22;12556;55.748;13.194;2023-04-25T02:25:35;7.60;99.90
11772;DHT22;12556;55.748;13.194;2023-04-25T02:28:02;7.60;99.90
11772;DHT22;12556;55.748;13.194;2023-04-25T02:30:31;7.60;99.90
11772;DHT22;12556;55.748;13.194;2023-04-25T02:32:58;7.50;99.90
11772;DHT22;12556;55.748;13.194;2023-04-25T02:35:24;7.50;99.90
11772;DHT22;12556;55.748;13.194;2023-04-25T02:37:51;7.50;99.90
11772;DHT22;12556;55.748;13.194;2023-04-25T02:40:18;7.50;99.90
11772;DHT22;12556;55.748;13.194;2023-04-25T02:42:45;7.50;99.90
11772;DHT22;12556;55.748;13.194;2023-04-25T02:45:13;7.60;99.90
11772;DHT22;12556;55.748;13.194;2023-04-25T02:47:42;7.50;99.90
11772;DHT22;12556;55.748;13.194;2023-04-25T02:50:09;7.50;99.90
11772;DHT22;12556;55.748;13.194;2023-04-25T02:52:36;7.40;99.90
11772;DHT22;12556;55.748;13.194;2023-04-25T02:55:04;7.40;99.90
11772;DHT22;12556;55.748;13.194;2023-04-25T02:57:31;7.30;99.90
11772;DHT22;12556;55.748;13.194;2023-04-25T02:59:57;7.30;99.90
11772;DHT22;12556;55.748;13.194;2023-04-25T03:02:24;7.30;99.90
11772;DHT22;12556;55.748;13.194;2023-04-25T03:04:52;7.30;99.90
11772;DHT22;12556;55.748;13.194;2023-04-25T03:07:19;7.20;99.90
11772;DHT22;12556;55.748;13.194;2023-04-25T03:09:46;7.20;99.90
11772;DHT22;12556;55.748;13.194;2023-04-25T03:12:13;7.20;99.90
11772;DHT22;12556;55.748;13.194;2023-04-25T03:14:40;7.20;99.90
11772;DHT22;12556;55.748;13.194;2023-04-25T03:17:07;7.20;99.90
11772;DHT22;12556;55.748;13.194;2023-04-25T03:19:34;7.20;99.90
11772;DHT22;12556;55.748;13.194;2023-04-25T03:22:02;7.10;99.90
11772;DHT22;12556;55.748;13.194;2023-04-25T03:24:29;7.10;99.90
11772;DHT22;12556;55.748;13.194;2023-04-25T03:26:56;7.10;99.90
11772;DHT22;12556;55.748;13.194;2023-04-25T03:29:23;7.30;99.90
11772;DHT22;12556;55.748;13.194;2023-04-25T03:31:52;7.10;99.90
11772;DHT22;12556;55.748;13.194;2023-04-25T03:34:18;7.10;99.90
11772;DHT22;12556;55.748;13.194;2023-04-25T03:36:47;7.10;99.90
11772;DHT22;12556;55.748;13.194;2023-04-25T03:39:15;7.20;99.90
11772;DHT22;12556;55.748;13.194;2023-04-25T03:41:42;7.10;99.90
11772;DHT22;12556;55.748;13.194;2023-04-25T03:44:09;7.10;99.90
11772;DHT22;12556;55.748;13.194;2023-04-25T03:46:36;7.20;99.90
11772;DHT22;12556;55.748;13.194;2023-04-25T03:49:03;7.10;99.90
11772;DHT22;12556;55.748;13.194;2023-04-25T03:51:30;7.10;99.90
11772;DHT22;12556;55.748;13.194;2023-04-25T03:53:57;7.10;99.90
11772;DHT22;12556;55.748;13.194;2023-04-25T03:56:25;7.10;99.90
11772;DHT22;12556;55.748;13.194;2023-04-25T03:58:52;7.20;99.90
11772;DHT22;12556;55.748;13.194;2023-04-25T04:01:19;7.10;99.90
11772;DHT22;12556;55.748;13.194;2023-04-25T04:03:45;7.10;99.90
11772;DHT22;12556;55.748;13.194;2023-04-25T04:06:12;7.10;99.90
11772;DHT22;12556;55.748;13.194;2023-04-25T04:08:40;7.20;99.90
11772;DHT22;12556;55.748;13.194;2023-04-25T04:11:07;7.20;99.90
11772;DHT22;12556;55.748;13.194;2023-04-25T04:13:35;7.20;99.90
11772;DHT22;12556;55.748;13.194;2023-04-25T04:16:03;7.20;99.90
11772;DHT22;12556;55.748;13.194;2023-04-25T04:18:30;7.20;99.90
11772;DHT22;12556;55.748;13.194;2023-04-25T04:20:58;7.20;99.90
11772;DHT22;12556;55.748;13.194;2023-04-25T04:23:25;7.20;99.90
11772;DHT22;12556;55.748;13.194;2023-04-25T04:25:54;7.20;99.90
11772;DHT22;12556;55.748;13.194;2023-04-25T04:28:22;7.20;99.90
11772;DHT22;12556;55.748;13.194;2023-04-25T04:30:50;7.20;99.90
11772;DHT22;12556;55.748;13.194;2023-04-25T04:33:18;7.20;99.90
11772;DHT22;12556;55.748;13.194;2023-04-25T04:35:46;7.20;99.90
11772;DHT22;12556;55.748;13.194;2023-04-25T04:38:14;7.80;99.90
11772;DHT22;12556;55.748;13.194;2023-04-25T04:40:41;7.20;99.90
11772;DHT22;12556;55.748;13.194;2023-04-25T04:43:08;7.20;99.90
11772;DHT22;12556;55.748;13.194;2023-04-25T04:45:36;7.30;99.90
11772;DHT22;12556;55.748;13.194;2023-04-25T04:48:05;7.30;99.90
11772;DHT22;12556;55.748;13.194;2023-04-25T04:50:32;7.30;99.90
11772;DHT22;12556;55.748;13.194;2023-04-25T04:52:59;7.20;99.90
11772;DHT22;12556;55.748;13.194;2023-04-25T04:55:26;7.20;99.90
11772;DHT22;12556;55.748;13.194;2023-04-25T04:57:53;7.20;99.90
11772;DHT22;12556;55.748;13.194;2023-04-25T05:00:20;7.30;99.90
11772;DHT22;12556;55.748;13.194;2023-04-25T05:02:47;7.20;99.90
11772;DHT22;12556;55.748;13.194;2023-04-25T05:05:15;7.30;99.90
11772;DHT22;12556;55.748;13.194;2023-04-25T05:07:42;7.30;99.90
11772;DHT22;12556;55.748;13.194;2023-04-25T05:10:09;7.30;99.90
11772;DHT22;12556;55.748;13.194;2023-04-25T05:12:36;7.30;99.90
11772;DHT22;12556;55.748;13.194;2023-04-25T05:15:04;7.30;99.90
11772;DHT22;12556;55.748;13.194;2023-04-25T05:17:31;7.30;99.90
11772;DHT22;12556;55.748;13.194;2023-04-25T05:19:58;7.30;99.90
11772;DHT22;12556;55.748;13.194;2023-04-25T05:22:26;7.30;99.90
11772;DHT22;12556;55.748;13.194;2023-04-25T05:24:53;7.30;99.90
11772;DHT22;12556;55.748;13.194;2023-04-25T05:27:20;7.40;99.90
11772;DHT22;12556;55.748;13.194;2023-04-25T05:29:47;7.40;99.90
11772;DHT22;12556;55.748;13.194;2023-04-25T05:32:14;7.30;99.90
11772;DHT22;12556;55.748;13.194;2023-04-25T05:34:41;7.40;99.90
11772;DHT22;12556;55.748;13.194;2023-04-25T05:37:08;7.40;99.90
11772;DHT22;12556;55.748;13.194;2023-04-25T05:39:36;7.40;99.90
11772;DHT22;12556;55.748;13.194;2023-04-25T05:42:03;7.40;99.90
11772;DHT22;12556;55.748;13.194;2023-04-25T05:44:30;7.40;99.90
11772;DHT22;12556;55.748;13.194;2023-04-25T05:46:57;7.10;99.90
11772;DHT22;12556;55.748;13.194;2023-04-25T05:49:24;7.40;99.90
11772;DHT22;12556;55.748;13.194;2023-04-25T05:51:51;7.40;99.90
11772;DHT22;12556;55.748;13.194;2023-04-25T05:54:18;7.50;99.90
11772;DHT22;12556;55.748;13.194;2023-04-25T05:56:46;7.40;99.90
11772;DHT22;12556;55.748;13.194;2023-04-25T05:59:13;7.40;99.90
11772;DHT22;12556;55.748;13.194;2023-04-25T06:01:41;7.40;99.90
11772;DHT22;12556;55.748;13.194;2023-04-25T06:04:08;7.40;99.90
11772;DHT22;12556;55.748;13.194;2023-04-25T06:06:35;7.40;99.90
11772;DHT22;12556;55.748;13.194;2023-04-25T06:09:02;7.40;99.90
11772;DHT22;12556;55.748;13.194;2023-04-25T06:11:29;7.40;99.90
11772;DHT22;12556;55.748;13.194;2023-04-25T06:13:57;7.40;99.90
11772;DHT22;12556;55.748;13.194;2023-04-25T06:16:24;7.40;99.90
11772;DHT22;12556;55.748;13.194;2023-04-25T06:18:51;7.40;99.90
11772;DHT22;12556;55.748;13.194;2023-04-25T06:21:18;7.40;99.90
11772;DHT22;12556;55.748;13.194;2023-04-25T06:23:45;7.50;99.90
11772;DHT22;12556;55.748;13.194;2023-04-25T06:26:12;7.50;99.90
11772;DHT22;12556;55.748;13.194;2023-04-25T06:28:39;7.50;99.90
11772;DHT22;12556;55.748;13.194;2023-04-25T06:31:07;8.20;99.90
11772;DHT22;12556;55.748;13.194;2023-04-25T06:33:34;7.50;99.90
11772;DHT22;12556;55.748;13.194;2023-04-25T06:36:01;8.30;99.90
11772;DHT22;12556;55.748;13.194;2023-04-25T06:38:28;7.60;99.90
11772;DHT22;12556;55.748;13.194;2023-04-25T06:40:55;7.50;99.90
11772;DHT22;12556;55.748;13.194;2023-04-25T06:43:22;7.50;99.90
11772;DHT22;12556;55.748;13.194;2023-04-25T06:45:49;7.50;99.90
11772;DHT22;12556;55.748;13.194;2023-04-25T06:48:17;7.50;99.90
11772;DHT22;12556;55.748;13.194;2023-04-25T06:50:44;7.50;99.90
11772;DHT22;12556;55.748;13.194;2023-04-25T06:53:11;7.50;99.90
11772;DHT22;12556;55.748;13.194;2023-04-25T06:55:38;7.50;99.90
11772;DHT22;12556;55.748;13.194;2023-04-25T06:58:05;7.50;99.90
11772;DHT22;12556;55.748;13.194;2023-04-25T07:00:33;7.50;99.90
11772;DHT22;12556;55.748;13.194;2023-04-25T07:03:00;7.50;99.90
11772;DHT22;12556;55.748;13.194;2023-04-25T07:05:29;7.50;99.90
11772;DHT22;12556;55.748;13.194;2023-04-25T07:07:55;7.50;99.90
11772;DHT22;12556;55.748;13.194;2023-04-25T07:10:23;7.50;99.90
11772;DHT22;12556;55.748;13.194;2023-04-25T07:12:50;7.50;99.90
11772;DHT22;12556;55.748;13.194;2023-04-25T07:15:17;7.50;99.90
11772;DHT22;12556;55.748;13.194;2023-04-25T07:17:44;7.50;99.90
11772;DHT22;12556;55.748;13.194;2023-04-25T07:20:11;7.50;99.90
11772;DHT22;12556;55.748;13.194;2023-04-25T07:22:40;7.70;99.90
11772;DHT22;12556;55.748;13.194;2023-04-25T07:25:07;7.60;99.90
11772;DHT22;12556;55.748;13.194;2023-04-25T07:27:35;7.60;99.90
11772;DHT22;12556;55.748;13.194;2023-04-25T07:30:02;8.10;99.90
11772;DHT22;12556;55.748;13.194;2023-04-25T07:32:29;7.60;99.90
11772;DHT22;12556;55.748;13.194;2023-04-25T07:34:56;7.60;99.90
11772;DHT22;12556;55.748;13.194;2023-04-25T07:37:23;7.50;99.90
11772;DHT22;12556;55.748;13.194;2023-04-25T07:39:52;7.60;99.90
11772;DHT22;12556;55.748;13.194;2023-04-25T07:42:19;7.50;99.90
11772;DHT22;12556;55.748;13.194;2023-04-25T07:44:46;7.50;99.90
11772;DHT22;12556;55.748;13.194;2023-04-25T07:47:13;7.50;99.90
11772;DHT22;12556;55.748;13.194;2023-04-25T07:49:40;7.60;99.90
11772;DHT22;12556;55.748;13.194;2023-04-25T07:52:07;7.60;99.90
11772;DHT22;12556;55.748;13.194;2023-04-25T07:54:34;7.60;99.90
11772;DHT22;12556;55.748;13.194;2023-04-25T07:57:03;7.60;99.90
11772;DHT22;12556;55.748;13.194;2023-04-25T07:59:31;7.60;99.90
11772;DHT22;12556;55.748;13.194;2023-04-25T08:01:58;7.50;99.90
11772;DHT22;12556;55.748;13.194;2023-04-25T08:04:26;7.50;99.90
11772;DHT22;12556;55.748;13.194;2023-04-25T08:06:53;7.60;99.90
11772;DHT22;12556;55.748;13.194;2023-04-25T08:09:20;7.60;99.90
11772;DHT22;12556;55.748;13.194;2023-04-25T08:11:48;7.60;99.90
11772;DHT22;12556;55.748;13.194;2023-04-25T08:14:16;7.60;99.90
11772;DHT22;12556;55.748;13.194;2023-04-25T08:16:43;7.60;99.90
11772;DHT22;12556;55.748;13.194;2023-04-25T08:19:10;7.60;99.90
11772;DHT22;12556;55.748;13.194;2023-04-25T08:21:37;7.60;99.90
11772;DHT22;12556;55.748;13.194;2023-04-25T08:24:04;7.60;99.90
11772;DHT22;12556;55.748;13.194;2023-04-25T08:26:31;7.60;99.90
11772;DHT22;12556;55.748;13.194;2023-04-25T08:28:58;7.60;99.90
11772;DHT22;12556;55.748;13.194;2023-04-25T08:31:27;7.60;99.90
11772;DHT22;12556;55.748;13.194;2023-04-25T08:33:54;7.60;99.90
11772;DHT22;12556;55.748;13.194;2023-04-25T08:36:20;7.60;99.90
11772;DHT22;12556;55.748;13.194;2023-04-25T08:38:47;7.60;99.90
11772;DHT22;12556;55.748;13.194;2023-04-25T08:41:15;7.60;99.90
11772;DHT22;12556;55.748;13.194;2023-04-25T08:43:43;7.60;99.90
11772;DHT22;12556;55.748;13.194;2023-04-25T08:46:11;7.60;99.90
11772;DHT22;12556;55.748;13.194;2023-04-25T08:48:40;7.60;99.90
11772;DHT22;12556;55.748;13.194;2023-04-25T08:51:10;7.60;99.90
11772;DHT22;12556;55.748;13.194;2023-04-25T08:53:42;7.60;99.90
11772;DHT22;12556;55.748;13.194;2023-04-25T08:56:12;7.60;99.90
11772;DHT22;12556;55.748;13.194;2023-04-25T08:58:43;7.60;99.90
11772;DHT22;12556;55.748;13.194;2023-04-25T09:01:11;7.60;99.90
11772;DHT22;12556;55.748;13.194;2023-04-25T09:03:39;7.60;99.90
11772;DHT22;12556;55.748;13.194;2023-04-25T09:06:07;7.60;99.90
11772;DHT22;12556;55.748;13.194;2023-04-25T09:08:36;7.60;99.90
11772;DHT22;12556;55.748;13.194;2023-04-25T09:11:03;7.60;99.90
11772;DHT22;12556;55.748;13.194;2023-04-25T09:13:30;7.90;99.90
11772;DHT22;12556;55.748;13.194;2023-04-25T09:15:58;7.60;99.90
11772;DHT22;12556;55.748;13.194;2023-04-25T09:18:26;7.70;99.90
11772;DHT22;12556;55.748;13.194;2023-04-25T09:20:56;7.60;99.90
11772;DHT22;12556;55.748;13.194;2023-04-25T09:23:23;8.00;99.90
11772;DHT22;12556;55.748;13.194;2023-04-25T09:25:52;7.70;99.90
11772;DHT22;12556;55.748;13.194;2023-04-25T09:28:24;7.70;99.90
11772;DHT22;12556;55.748;13.194;2023-04-25T09:30:55;7.80;99.90
11772;DHT22;12556;55.748;13.194;2023-04-25T09:33:28;7.70;99.90
11772;DHT22;12556;55.748;13.194;2023-04-25T09:36:03;7.80;99.90
11772;DHT22;12556;55.748;13.194;2023-04-25T09:38:31;7.80;99.90
11772;DHT22;12556;55.748;13.194;2023-04-25T09:40:58;7.80;99.90
11772;DHT22;12556;55.748;13.194;2023-04-25T09:43:26;7.80;99.90
11772;DHT22;12556;55.748;13.194;2023-04-25T09:45:54;7.80;99.90
11772;DHT22;12556;55.748;13.194;2023-04-25T09:48:26;7.80;99.90
11772;DHT22;12556;55.748;13.194;2023-04-25T09:51:07;7.80;99.90
11772;DHT22;12556;55.748;13.194;2023-04-25T09:53:36;7.90;99.90
11772;DHT22;12556;55.748;13.194;2023-04-25T09:56:04;7.90;99.90
11772;DHT22;12556;55.748;13.194;2023-04-25T09:58:32;8.00;99.90
11772;DHT22;12556;55.748;13.194;2023-04-25T10:01:01;8.00;99.90
11772;DHT22;12556;55.748;13.194;2023-04-25T10:03:30;8.00;99.90
11772;DHT22;12556;55.748;13.194;2023-04-25T10:06:00;8.00;99.90
11772;DHT22;12556;55.748;13.194;2023-04-25T10:08:32;8.00;99.90
11772;DHT22;12556;55.748;13.194;2023-04-25T10:11:00;8.00;99.90
11772;DHT22;12556;55.748;13.194;2023-04-25T10:13:29;8.00;99.90
11772;DHT22;12556;55.748;13.194;2023-04-25T10:15:57;8.00;99.90
11772;DHT22;12556;55.748;13.194;2023-04-25T10:18:25;8.00;99.90
11772;DHT22;12556;55.748;13.194;2023-04-25T10:20:54;8.10;99.90
11772;DHT22;12556;55.748;13.194;2023-04-25T10:23:22;8.00;99.90
11772;DHT22;12556;55.748;13.194;2023-04-25T10:25:51;8.10;99.90
11772;DHT22;12556;55.748;13.194;2023-04-25T10:28:19;8.10;99.90
11772;DHT22;12556;55.748;13.194;2023-04-25T10:31:00;8.20;99.90
11772;DHT22;12556;55.748;13.194;2023-04-25T10:33:35;8.10;99.90
11772;DHT22;12556;55.748;13.194;2023-04-25T10:36:12;8.20;99.90
11772;DHT22;12556;55.748;13.194;2023-04-25T10:38:40;8.20;99.90
11772;DHT22;12556;55.748;13.194;2023-04-25T10:41:10;8.20;99.90
11772;DHT22;12556;55.748;13.194;2023-04-25T10:43:39;8.30;99.90
11772;DHT22;12556;55.748;13.194;2023-04-25T10:46:24;8.20;99.90
11772;DHT22;12556;55.748;13.194;2023-04-25T10:48:53;8.20;99.90
11772;DHT22;12556;55.748;13.194;2023-04-25T10:51:22;8.30;99.90
11772;DHT22;12556;55.748;13.194;2023-04-25T10:54:00;8.30;99.90
11772;DHT22;12556;55.748;13.194;2023-04-25T10:56:29;8.30;99.90
11772;DHT22;12556;55.748;13.194;2023-04-25T10:59:07;8.40;99.90
11772;DHT22;12556;55.748;13.194;2023-04-25T11:01:38;8.40;99.90
11772;DHT22;12556;55.748;13.194;2023-04-25T11:04:05;8.50;99.90
11772;DHT22;12556;55.748;13.194;2023-04-25T11:06:41;8.40;99.90
11772;DHT22;12556;55.748;13.194;2023-04-25T11:09:12;8.50;99.90
11772;DHT22;12556;55.748;13.194;2023-04-25T11:11:41;8.50;99.90
11772;DHT22;12556;55.748;13.194;2023-04-25T11:14:08;8.50;99.90
11772;DHT22;12556;55.748;13.194;2023-04-25T11:16:35;8.50;99.90
11772;DHT22;12556;55.748;13.194;2023-04-25T11:19:02;8.60;99.90
11772;DHT22;12556;55.748;13.194;2023-04-25T11:21:31;8.60;99.90
11772;DHT22;12556;55.748;13.194;2023-04-25T11:23:59;8.70;99.90
11772;DHT22;12556;55.748;13.194;2023-04-25T11:26:26;8.60;99.90
11772;DHT22;12556;55.748;13.194;2023-04-25T11:28:58;8.60;99.90
11772;DHT22;12556;55.748;13.194;2023-04-25T11:31:26;8.70;99.90
11772;DHT22;12556;55.748;13.194;2023-04-25T11:33:53;8.70;99.90
11772;DHT22;12556;55.748;13.194;2023-04-25T11:36:22;9.30;99.90
11772;DHT22;12556;55.748;13.194;2023-04-25T11:38:49;8.80;99.90
11772;DHT22;12556;55.748;13.194;2023-04-25T11:41:17;8.90;99.90
11772;DHT22;12556;55.748;13.194;2023-04-25T11:43:44;8.90;99.90
11772;DHT22;12556;55.748;13.194;2023-04-25T11:46:12;9.00;99.90
11772;DHT22;12556;55.748;13.194;2023-04-25T11:48:39;9.00;99.90
11772;DHT22;12556;55.748;13.194;2023-04-25T11:51:07;9.10;99.90
11772;DHT22;12556;55.748;13.194;2023-04-25T11:53:34;9.10;99.90
11772;DHT22;12556;55.748;13.194;2023-04-25T11:56:01;9.20;99.90
11772;DHT22;12556;55.748;13.194;2023-04-25T11:58:28;9.40;99.90
11772;DHT22;12556;55.748;13.194;2023-04-25T12:00:56;9.60;99.90
11772;DHT22;12556;55.748;13.194;2023-04-25T12:03:26;9.70;99.90
11772;DHT22;12556;55.748;13.194;2023-04-25T12:06:02;9.70;99.90
11772;DHT22;12556;55.748;13.194;2023-04-25T12:08:30;9.70;99.90
11772;DHT22;12556;55.748;13.194;2023-04-25T12:10:57;9.70;99.90
11772;DHT22;12556;55.748;13.194;2023-04-25T12:13:25;9.70;99.90
11772;DHT22;12556;55.748;13.194;2023-04-25T12:15:54;10.80;99.90
11772;DHT22;12556;55.748;13.194;2023-04-25T12:18:23;9.60;99.90
11772;DHT22;12556;55.748;13.194;2023-04-25T12:20:53;9.60;99.90
11772;DHT22;12556;55.748;13.194;2023-04-25T12:23:25;9.50;99.90
11772;DHT22;12556;55.748;13.194;2023-04-25T12:25:53;9.40;99.90
11772;DHT22;12556;55.748;13.194;2023-04-25T12:28:23;9.40;99.90
11772;DHT22;12556;55.748;13.194;2023-04-25T12:30:54;9.40;99.90
11772;DHT22;12556;55.748;13.194;2023-04-25T12:33:21;9.40;99.90
11772;DHT22;12556;55.748;13.194;2023-04-25T12:35:48;9.40;99.90
11772;DHT22;12556;55.748;13.194;2023-04-25T12:38:22;9.40;99.90
11772;DHT22;12556;55.748;13.194;2023-04-25T12:40:49;9.40;99.90
11772;DHT22;12556;55.748;13.194;2023-04-25T12:43:16;9.40;99.90
11772;DHT22;12556;55.748;13.194;2023-04-25T12:45:43;9.50;99.90
11772;DHT22;12556;55.748;13.194;2023-04-25T12:48:10;9.80;99.90
11772;DHT22;12556;55.748;13.194;2023-04-25T12:50:37;9.50;99.90
11772;DHT22;12556;55.748;13.194;2023-04-25T12:53:04;9.50;99.90
11772;DHT22;12556;55.748;13.194;2023-04-25T12:55:32;9.50;99.90
11772;DHT22;12556;55.748;13.194;2023-04-25T12:57:59;9.40;99.90
11772;DHT22;12556;55.748;13.194;2023-04-25T13:00:26;9.40;99.90
11772;DHT22;12556;55.748;13.194;2023-04-25T13:02:53;9.80;99.90
11772;DHT22;12556;55.748;13.194;2023-04-25T13:05:20;9.40;99.90
11772;DHT22;12556;55.748;13.194;2023-04-25T13:07:47;9.40;99.90
11772;DHT22;12556;55.748;13.194;2023-04-25T13:10:14;9.40;99.90
11772;DHT22;12556;55.748;13.194;2023-04-25T13:12:42;9.50;99.90
11772;DHT22;12556;55.748;13.194;2023-04-25T13:15:10;9.50;99.90
11772;DHT22;12556;55.748;13.194;2023-04-25T13:17:37;9.40;99.90
11772;DHT22;12556;55.748;13.194;2023-04-25T13:20:06;9.30;99.90
11772;DHT22;12556;55.748;13.194;2023-04-25T13:22:35;9.40;99.90
11772;DHT22;12556;55.748;13.194;2023-04-25T13:25:03;9.40;99.90
11772;DHT22;12556;55.748;13.194;2023-04-25T13:27:31;9.40;99.90
11772;DHT22;12556;55.748;13.194;2023-04-25T13:30:00;9.50;99.90
11772;DHT22;12556;55.748;13.194;2023-04-25T13:32:32;9.50;99.90
11772;DHT22;12556;55.748;13.194;2023-04-25T13:34:59;9.50;99.90
11772;DHT22;12556;55.748;13.194;2023-04-25T13:37:26;9.40;99.90
11772;DHT22;12556;55.748;13.194;2023-04-25T13:39:53;9.50;99.90
11772;DHT22;12556;55.748;13.194;2023-04-25T13:42:20;9.40;99.90
11772;DHT22;12556;55.748;13.194;2023-04-25T13:44:47;9.40;99.90
11772;DHT22;12556;55.748;13.194;2023-04-25T13:47:16;9.30;99.90
11772;DHT22;12556;55.748;13.194;2023-04-25T13:49:42;9.30;99.90
11772;DHT22;12556;55.748;13.194;2023-04-25T13:52:09;9.20;99.90
11772;DHT22;12556;55.748;13.194;2023-04-25T13:54:36;9.20;99.90
11772;DHT22;12556;55.748;13.194;2023-04-25T13:57:03;9.20;99.90
11772;DHT22;12556;55.748;13.194;2023-04-25T13:59:30;9.20;99.90
11772;DHT22;12556;55.748;13.194;2023-04-25T14:01:57;9.30;99.90
11772;DHT22;12556;55.748;13.194;2023-04-25T14:04:26;9.20;99.90
11772;DHT22;12556;55.748;13.194;2023-04-25T14:06:53;9.10;99.90
11772;DHT22;12556;55.748;13.194;2023-04-25T14:09:20;9.10;99.90
11772;DHT22;12556;55.748;13.194;2023-04-25T14:11:51;9.10;99.90
11772;DHT22;12556;55.748;13.194;2023-04-25T14:14:18;9.10;99.90
11772;DHT22;12556;55.748;13.194;2023-04-25T14:16:44;9.10;99.90
11772;DHT22;12556;55.748;13.194;2023-04-25T14:19:13;9.10;99.90
11772;DHT22;12556;55.748;13.194;2023-04-25T14:21:42;9.10;99.90
11772;DHT22;12556;55.748;13.194;2023-04-25T14:24:09;9.10;99.90
11772;DHT22;12556;55.748;13.194;2023-04-25T14:26:37;9.10;99.90
11772;DHT22;12556;55.748;13.194;2023-04-25T14:29:05;9.10;99.90
11772;DHT22;12556;55.748;13.194;2023-04-25T14:31:33;9.10;99.90
11772;DHT22;12556;55.748;13.194;2023-04-25T14:34:00;9.20;99.90
11772;DHT22;12556;55.748;13.194;2023-04-25T14:36:28;9.30;99.90
11772;DHT22;12556;55.748;13.194;2023-04-25T14:38:57;9.30;99.90
11772;DHT22;12556;55.748;13.194;2023-04-25T14:41:25;9.30;99.90
11772;DHT22;12556;55.748;13.194;2023-04-25T14:43:52;9.40;99.90
11772;DHT22;12556;55.748;13.194;2023-04-25T14:46:19;9.30;99.90
11772;DHT22;12556;55.748;13.194;2023-04-25T14:48:47;9.50;99.90
11772;DHT22;12556;55.748;13.194;2023-04-25T14:51:14;9.40;99.90
11772;DHT22;12556;55.748;13.194;2023-04-25T14:53:41;9.40;99.90
11772;DHT22;12556;55.748;13.194;2023-04-25T14:56:09;9.50;99.90
11772;DHT22;12556;55.748;13.194;2023-04-25T14:58:36;9.50;99.90
11772;DHT22;12556;55.748;13.194;2023-04-25T15:01:04;9.70;99.90
11772;DHT22;12556;55.748;13.194;2023-04-25T15:03:32;9.60;99.90
11772;DHT22;12556;55.748;13.194;2023-04-25T15:05:59;9.80;99.90
11772;DHT22;12556;55.748;13.194;2023-04-25T15:08:26;9.80;99.90
11772;DHT22;12556;55.748;13.194;2023-04-25T15:10:53;9.90;99.90
11772;DHT22;12556;55.748;13.194;2023-04-25T15:13:21;10.00;99.90
11772;DHT22;12556;55.748;13.194;2023-04-25T15:15:48;10.00;99.90
11772;DHT22;12556;55.748;13.194;2023-04-25T15:18:16;10.00;99.90
11772;DHT22;12556;55.748;13.194;2023-04-25T15:20:43;10.00;99.90
11772;DHT22;12556;55.748;13.194;2023-04-25T15:23:11;10.00;99.90
11772;DHT22;12556;55.748;13.194;2023-04-25T15:25:37;10.50;99.90
11772;DHT22;12556;55.748;13.194;2023-04-25T15:28:04;10.00;99.90
11772;DHT22;12556;55.748;13.194;2023-04-25T15:30:33;10.00;99.90
11772;DHT22;12556;55.748;13.194;2023-04-25T15:33:00;10.00;99.90